This is the latest recevied weather packets stored in our database for station/object SP3WRO-2. If no packets are shown the sender has not sent any weather packets the latest 10 day(s).
| Time | Temp. | Humidity | Pressure | Rain* | Wind** | Luminosity | Snow |
|---|---|---|---|---|---|---|---|
| 1787945376 | 20.56° C | 62% | 1006.6 hPa | - | - | - | - |
| 1787944475 | 20° C | 70% | 1006.5 hPa | - | - | - | - |
| 1787943574 | 21.11° C | 64% | 1007 hPa | - | - | - | - |
| 1787942673 | 21.67° C | 62% | 1007.1 hPa | - | - | - | - |
| 1787941773 | 20.56° C | 62% | 1007.1 hPa | - | - | - | - |
| 1787940871 | 20.56° C | 69% | 1007.1 hPa | - | - | - | - |
| 1787939970 | 22.22° C | 58% | 1007.3 hPa | - | - | - | - |
| 1787939069 | 22.22° C | 57% | 1007.4 hPa | - | - | 1 W/m² | - |
| 1787938169 | 22.78° C | 56% | 1007.2 hPa | - | - | 7 W/m² | - |
| 1787937268 | 22.78° C | 55% | 1007.2 hPa | - | - | 17 W/m² | - |
| 1787936367 | 22.78° C | 58% | 1007.4 hPa | - | - | 41 W/m² | - |
| 1787935466 | 22.78° C | 59% | 1007.6 hPa | - | - | 40 W/m² | - |
| 1787934565 | 22.78° C | 64% | 1007.7 hPa | - | - | 32 W/m² | - |
| 1787933664 | 22.78° C | 64% | 1008 hPa | - | - | 22 W/m² | - |
| 1787932763 | 22.78° C | 70% | 1008.5 hPa | - | - | 46 W/m² | - |
| 1787931863 | 23.89° C | 61% | 1009.1 hPa | - | - | 80 W/m² | - |
| 1787930962 | 24.44° C | 56% | 1009.4 hPa | - | - | 130 W/m² | - |
| 1787930061 | 23.89° C | 65% | 1009.9 hPa | - | - | 154 W/m² | - |
| 1787929160 | 23.89° C | 57% | 1009.7 hPa | - | - | 46 W/m² | - |
| 1787928259 | 24.44° C | 52% | 1009.1 hPa | - | - | 54 W/m² | - |
| 1787927358 | 24.44° C | 52% | 1008.7 hPa | - | - | 85 W/m² | - |
| 1787926457 | 25° C | 51% | 1008.9 hPa | - | - | 67 W/m² | - |
| 1787925556 | 25° C | 51% | 1009 hPa | - | - | 86 W/m² | - |
| 1787924655 | 25° C | 51% | 1008.7 hPa | - | - | 128 W/m² | - |
| 1787923754 | 25° C | 50% | 1008.8 hPa | - | - | 183 W/m² | - |
* Rain since midnight (hover to see other rain measurements)
** Current wind speed in m/s (hover to see current wind gust speed)